Latest Coastal Weather Observations for Christmas Island

IDW60701

Issued at 9:23 am WST Tuesday 25 June 2024 (issued every 10 minutes, with the page automatically refreshed every 10 minutes)

About coastal observations | Map of coastal stations | Coastal observations for WA | Marine services | Other Formats
Station Details ID: 200790 Name: CHRISTMAS ISLAND AERO Lat: -10.45 Lon: 105.69 Height: 261.0 m
Data from the previous 72 hours. | See also: Recent months at Christmas Island
Date/Time
WST
Wind Sea
Height
m
Swell Vis
km
Cloud Weather Temp
°C
Press
MSL
hPa
Rain since
9am
mm
Dir  Spd
kts
Gust
kts
Height
m
Period
s
Dir
25/09:00am SE 12 17 - - - - 10 Partly cloudy - 25.4 1012.2 0.0
25/08:30am SE 10 16 - - - - 10 Partly cloudy - 25.2 1011.9 0.0
25/08:00am SE 9 13 - - - - 10 Partly cloudy - 24.8 1011.5 0.0
25/07:30am SE 10 15 - - - - 10 Partly cloudy - 24.3 1011.1 0.0
25/07:00am ESE 10 15 - - - - 10 Cloudy - 24.5 1010.7 0.0
25/06:30am SE 10 14 - - - - 10 Partly cloudy - 24.5 1010.8 0.0
25/06:00am ESE 10 15 - - - - 10 Partly cloudy - 24.6 1010.5 0.0
25/05:30am ESE 10 14 - - - - 10 Partly cloudy - 24.4 1010.3 0.0
25/05:00am SE 10 14 - - - - - - - 24.6 1010.5 0.0
25/04:30am SE 9 15 - - - - 10 Partly cloudy - 24.6 1010.6 0.0
25/04:00am SE 9 13 - - - - 10 Cloudy - 24.6 1010.5 0.0
25/03:30am SE 9 13 - - - - 10 Partly cloudy - 24.6 1010.9 0.0
25/03:00am SE 9 14 - - - - 10 Partly cloudy - 24.7 1011.1 0.0
25/02:30am ESE 10 13 - - - - 10 Partly cloudy - 24.8 1011.4 0.0
25/02:00am ESE 9 14 - - - - 10 Partly cloudy - 24.7 1011.8 0.0
25/01:30am ESE 9 14 - - - - 10 Cloudy - 24.8 1012.0 0.0
25/01:00am SE 9 15 - - - - 10 Cloudy - 24.8 1012.3 0.0
25/12:30am SE 11 17 - - - - 10 Partly cloudy - 24.8 1012.3 0.0
25/12:00am SE 10 16 - - - - 10 Cloudy - 24.8 1012.2 0.0
 
Date/Time
WST
Wind Sea
Height
m
Swell Vis
km
Cloud Weather Temp
°C
Press
MSL
hPa
Rain since
9am
mm
Dir  Spd
kts
Gust
kts
Height
m
Period
s
Dir
24/11:30pm SE 11 17 - - - - 10 Partly cloudy - 24.8 1012.5 0.0
24/11:00pm SE 10 17 - - - - 10 Partly cloudy - 24.8 1012.4 0.0
24/10:30pm ESE 10 15 - - - - 10 Cloudy - 24.8 1012.5 0.0
24/10:00pm ESE 11 17 - - - - 10 Cloudy - 24.9 1012.4 0.0
24/09:30pm ESE 12 17 - - - - 10 Partly cloudy - 24.9 1012.1 0.0
24/09:00pm ESE 11 16 - - - - 10 Partly cloudy - 24.9 1012.0 0.0
24/08:30pm ESE 12 16 - - - - 10 Cloudy - 25.1 1011.7 0.0
24/08:00pm SE 9 15 - - - - 10 Partly cloudy - 24.6 1011.2 0.0
24/07:30pm ESE 13 20 - - - - 10 Partly cloudy - 24.7 1011.0 0.0
24/07:00pm ESE 13 20 - - - - - Partly cloudy - 24.9 1010.7 0.0
24/06:30pm ESE 14 21 - - - - 10 Partly cloudy - 25.2 1010.5 0.0
24/06:00pm ESE 13 20 - - - - 10 Cloudy - 25.3 1010.1 0.0
24/05:30pm SE 13 20 - - - - 10 Cloudy - 25.3 1009.9 0.0
24/05:00pm ESE 13 22 - - - - 10 Cloudy - 25.4 1009.9 0.0
24/04:30pm ESE 15 23 - - - - 10 Partly cloudy - 25.8 1010.1 0.0
24/04:00pm ESE 15 24 - - - - 10 Partly cloudy - 26.3 1009.8 0.0
24/03:30pm ESE 13 21 - - - - 10 Partly cloudy - 26.5 1009.9 0.0
24/03:00pm ESE 14 23 - - - - 10 Partly cloudy - 26.0 1010.4 0.0
24/02:30pm ESE 13 20 - - - - 10 Partly cloudy - 26.1 1010.8 0.0
24/02:00pm ESE 13 22 - - - - 10 Cloudy - 26.6 1011.2 0.0
24/01:30pm ESE 15 24 - - - - 10 Cloudy - 26.4 1011.6 0.0
24/01:00pm ESE 14 21 - - - - 10 Mostly clear - 26.8 1012.0 0.0
24/12:30pm ESE 14 22 - - - - 10 Partly cloudy - 26.8 1012.5 0.0
24/12:00pm ESE 14 21 - - - - 10 Partly cloudy - 27.4 1012.9 0.0
24/11:30am ESE 15 22 - - - - 10 Partly cloudy - 26.0 1013.3 0.0
24/11:00am ESE 14 21 - - - - 10 Partly cloudy - 26.7 1013.5 0.0
24/10:30am ESE 13 19 - - - - 10 Partly cloudy - 26.6 1013.5 0.0
24/10:00am ESE 13 22 - - - - 10 Cloudy - 25.5 1013.5 0.0
24/09:30am SE 12 20 - - - - 10 Partly cloudy - 26.1 1013.6 0.0
24/09:00am ESE 13 19 - - - - 10 Partly cloudy - 25.1 1013.6 0.0
24/08:30am ESE 13 18 - - - - 10 Partly cloudy - 25.3 1013.3 0.0
24/08:00am ESE 13 19 - - - - 10 Partly cloudy - 24.8 1012.8 0.0
24/07:30am ESE 11 16 - - - - 10 Partly cloudy - 24.7 1012.4 0.0
24/07:00am ESE 12 18 - - - - 10 Mostly cloudy - 24.6 1012.4 0.0
24/06:30am ESE 11 16 - - - - 10 Partly cloudy - 24.6 1012.2 0.0
24/06:00am ESE 12 17 - - - - 10 Cloudy - 24.6 1012.0 0.0
24/05:30am ESE 10 15 - - - - 10 Partly cloudy - 24.6 1011.9 0.0
24/05:00am SE 10 17 - - - - 10 Cloudy - 24.6 1011.8 0.0
24/04:30am ESE 12 18 - - - - 10 Partly cloudy - 24.7 1011.8 0.0
24/04:00am ESE 12 17 - - - - 10 Cloudy - 24.8 1011.9 0.0
24/03:30am ESE 11 17 - - - - 10 Partly cloudy - 24.7 1012.0 0.0
24/03:00am ESE 12 17 - - - - 10 Cloudy - 24.8 1012.2 0.0
24/02:30am ESE 12 19 - - - - 10 Partly cloudy - 24.8 1012.6 0.0
24/02:00am ESE 11 17 - - - - 10 Partly cloudy - 24.9 1012.8 0.0
24/01:30am ESE 12 19 - - - - 10 Partly cloudy - 24.9 1012.9 0.0
24/01:00am ESE 12 19 - - - - 10 Mostly clear - 24.8 1013.0 0.0
24/12:30am ESE 13 21 - - - - 10 Partly cloudy - 24.9 1013.1 0.0
24/12:00am ESE 12 22 - - - - 10 Partly cloudy - 24.9 1013.1 0.0
 
Date/Time
WST
Wind Sea
Height
m
Swell Vis
km
Cloud Weather Temp
°C
Press
MSL
hPa
Rain since
9am
mm
Dir  Spd
kts
Gust
kts
Height
m
Period
s
Dir
23/11:30pm ESE 13 20 - - - - 10 Partly cloudy - 25.0 1013.1 0.0
23/11:00pm ESE 13 21 - - - - 10 Partly cloudy - 25.1 1013.3 0.0
23/10:30pm ESE 14 21 - - - - 10 Partly cloudy - 25.1 1013.1 0.0
23/10:00pm ESE 12 23 - - - - 10 Cloudy - 25.0 1012.8 0.0
23/09:30pm ESE 13 20 - - - - 10 Partly cloudy - 25.0 1012.4 0.0
23/09:00pm ESE 13 22 - - - - 10 Partly cloudy - 24.9 1012.0 0.0
23/08:30pm ESE 12 20 - - - - 10 Partly cloudy - 24.9 1011.8 0.0
23/08:00pm ESE 12 18 - - - - 10 Partly cloudy - 25.0 1011.4 0.0
23/07:30pm ESE 12 18 - - - - 10 Partly cloudy - 25.0 1011.2 0.0
23/07:00pm ESE 13 19 - - - - 10 Partly cloudy - 25.0 1011.0 0.0
23/06:30pm ESE 14 23 - - - - 10 Partly cloudy - 25.1 1010.6 0.0
23/06:00pm ESE 12 18 - - - - 10 Partly cloudy - 25.5 1010.5 0.0
23/05:30pm ESE 11 17 - - - - 10 Partly cloudy - 25.6 1010.5 0.0
23/05:00pm E 12 19 - - - - 10 Partly cloudy - 25.7 1010.5 0.0
23/04:30pm ESE 12 17 - - - - 10 Partly cloudy - 26.1 1010.5 0.0
23/04:00pm ESE 13 19 - - - - 10 Mostly clear - 26.0 1010.7 0.0
23/03:30pm ESE 13 19 - - - - 10 Partly cloudy - 26.6 1010.8 0.0
23/03:00pm ESE 10 16 - - - - 10 Partly cloudy - 27.2 1011.2 0.0
23/02:30pm E 12 19 - - - - 10 Partly cloudy - 27.1 1011.6 0.0
23/02:00pm ESE 14 20 - - - - 10 Partly cloudy - 26.8 1011.8 0.0
23/01:30pm ESE 11 18 - - - - 10 Partly cloudy - 26.2 1012.0 0.0
23/01:00pm ESE 14 20 - - - - 10 Cloudy - 26.7 1012.3 0.0
23/12:30pm ESE 14 21 - - - - 10 Partly cloudy - 26.7 1012.8 0.0
23/12:16pm ESE 15 25 - - - - 10 Partly cloudy - 26.4 1013.0 0.0
23/12:00pm ESE 14 22 - - - - 10 Partly cloudy - 26.5 1013.2 0.0
23/11:30am ESE 13 19 - - - - 10 Partly cloudy - 26.7 1013.6 0.0
23/11:00am ESE 12 19 - - - - 10 Partly cloudy - 26.9 1013.7 0.0
23/10:30am ESE 13 21 - - - - 10 Partly cloudy - 26.4 1013.6 0.0
23/10:00am ESE 13 19 - - - - 10 Mostly clear - 26.2 1013.6 0.0
23/09:30am ESE 12 20 - - - - 10 Partly cloudy - 25.8 1013.7 0.0
23/09:00am ESE 12 18 - - - - - - - 25.5 1013.5 0.0
23/08:30am ESE 14 20 - - - - 10 Partly cloudy - 25.3 1013.1 0.0
23/08:00am ESE 11 17 - - - - 10 Partly cloudy - 24.9 1012.9 0.0
23/07:30am ESE 13 19 - - - - 10 Partly cloudy - 24.5 1012.6 0.0
23/07:00am ESE 13 19 - - - - 10 Partly cloudy - 24.4 1012.6 0.0
23/06:30am ESE 13 21 - - - - 10 Partly cloudy - 24.5 1012.5 0.0
23/06:00am ESE 12 21 - - - - 10 Partly cloudy - 24.5 1012.4 0.0
23/05:30am SE 11 18 - - - - 10 Partly cloudy - 24.3 1012.5 0.0
23/05:00am SE 12 18 - - - - 10 Partly cloudy - 24.3 1012.4 0.0
23/04:30am ESE 11 19 - - - - 10 Partly cloudy - 24.4 1012.6 0.0
23/04:00am ESE 11 17 - - - - 10 Partly cloudy - 24.4 1012.7 0.0
23/03:30am E 10 15 - - - - 10 Partly cloudy - 24.6 1013.1 0.0
23/03:00am E 11 16 - - - - 10 Partly cloudy - 24.6 1013.3 0.0
23/02:30am ESE 11 17 - - - - 10 Partly cloudy - 24.6 1013.7 0.0
23/02:00am ESE 12 16 - - - - 10 Partly cloudy - 24.6 1013.8 0.0
23/01:30am ESE 10 17 - - - - 10 Partly cloudy - 24.7 1013.9 0.0
23/01:00am ESE 10 18 - - - - 10 Cloudy - 24.6 1014.0 0.0
23/12:30am ESE 9 15 - - - - 10 Partly cloudy - 24.7 1014.0 0.0
23/12:00am ESE 10 15 - - - - 10 Partly cloudy - 24.9 1014.1 0.0
 
Date/Time
WST
Wind Sea
Height
m
Swell Vis
km
Cloud Weather Temp
°C
Press
MSL
hPa
Rain since
9am
mm
Dir  Spd
kts
Gust
kts
Height
m
Period
s
Dir
22/11:30pm ESE 10 18 - - - - 10 Partly cloudy - 24.9 1014.0 0.0
22/11:00pm E 10 17 - - - - 10 Partly cloudy - 24.9 1013.8 0.0
22/10:30pm ESE 12 17 - - - - 10 Partly cloudy - 24.8 1013.7 0.0
22/10:00pm ESE 11 17 - - - - 10 Mostly clear - 24.9 1013.5 0.0
22/09:30pm ESE 12 18 - - - - 10 Partly cloudy - 24.7 1012.9 0.0
22/09:00pm E 11 16 - - - - 10 Cloudy - 24.9 1012.6 0.0
22/08:30pm E 13 21 - - - - 10 Partly cloudy - 24.8 1012.4 0.0
22/08:00pm E 12 20 - - - - 10 Partly cloudy - 24.9 1012.0 0.0
22/07:30pm ESE 12 17 - - - - 10 Partly cloudy - 24.8 1011.9 0.0
22/07:00pm E 11 21 - - - - 10 Partly cloudy - 25.1 1011.6 0.0
22/06:30pm ESE 12 19 - - - - 10 Partly cloudy - 25.2 1011.3 0.0
22/06:00pm E 11 18 - - - - 10 Partly cloudy - 25.3 1011.2 0.0
22/05:30pm ESE 12 22 - - - - 10 Partly cloudy - 25.6 1011.2 0.0
22/05:00pm E 12 18 - - - - 10 Partly cloudy - 26.1 1011.1 0.0
22/04:30pm ESE 11 17 - - - - 10 Partly cloudy - 26.2 1010.9 0.0
22/04:00pm E 11 19 - - - - 10 Mostly cloudy - 26.9 1010.9 0.0
22/03:30pm ESE 12 17 - - - - 10 Partly cloudy - 26.9 1011.0 0.0
22/03:00pm ESE 13 18 - - - - 10 Partly cloudy - 26.5 1011.1 0.0
22/02:30pm ESE 13 20 - - - - 10 Partly cloudy - 26.5 1011.3 0.0
22/02:00pm ESE 15 21 - - - - 10 Partly cloudy - 27.2 1011.7 0.0
22/01:30pm ESE 14 21 - - - - 10 Partly cloudy - 26.9 1012.0 0.0
22/01:00pm ESE 12 18 - - - - 10 Partly cloudy - 26.4 1012.4 0.0
22/12:30pm ESE 13 19 - - - - 10 Partly cloudy - 27.1 1012.7 0.0
22/12:00pm ESE 13 19 - - - - 10 Partly cloudy - 27.0 1013.1 0.0
22/11:30am ESE 14 22 - - - - 10 Partly cloudy - 26.3 1013.5 0.0
22/11:00am ESE 12 18 - - - - 10 Partly cloudy - 27.1 1013.8 0.0
22/10:30am ESE 12 20 - - - - 10 Partly cloudy - 26.1 1014.0 0.0
22/10:00am ESE 14 21 - - - - - Mostly clear - 26.0 1014.2 0.0
22/09:30am ESE 13 20 - - - - 10 Partly cloudy - 25.4 1014.3 0.0

Other formats

Comma delimited format used in spreadsheet applications
http://www.bom.gov.au/fwo/IDW60701/IDW60701.96995.axf

JavaScript Object Notation format (JSON) in row-major order
http://www.bom.gov.au/fwo/IDW60701/IDW60701.96995.json

Data quality

Most of these data are generated automatically and are frequently updated. Quality checks on data are not normally performed. It is possible for incorrect values to appear. Refer to information at About Latest Weather Observations and please check the disclaimer before using these data.